Time;durP1;ratioP1;P1;durP2;ratioP2;P2;SDS_P1;SDS_P2;PMS_P1;PMS_P2;Temp;Humidity;BMP_temperature;BMP_pressure;BME280_temperature;BME280_humidity;BME280_pressure;Samples;Min_cycle;Max_cycle;Signal;HPM_P1;HPM_P2
2023/12/25 00:02:24;;;;;;;4.28;1.50;;;;;;;11.31;70.52;96868.97;4910322;28;20038;-80
2023/12/25 00:04:49;;;;;;;4.20;1.80;;;;;;;11.19;71.24;96860.56;4895478;28;20292;-79
2023/12/25 00:07:15;;;;;;;3.47;1.27;;;;;;;11.23;70.51;96849.38;4892008;28;20192;-80
2023/12/25 00:09:40;;;;;;;2.88;1.60;;;;;;;10.83;72.02;96863.03;4899079;28;20535;-82
2023/12/25 00:12:06;;;;;;;4.78;1.50;;;;;;;11.06;71.81;96864.44;4907924;28;20046;-80
2023/12/25 00:14:32;;;;;;;3.00;1.65;;;;;;;10.77;72.30;96856.25;4875178;28;20268;-82
2023/12/25 00:16:57;;;;;;;5.43;1.73;;;;;;;11.11;71.20;96863.69;4889798;28;20376;-80
2023/12/25 00:19:22;;;;;;;3.92;1.60;;;;;;;11.16;71.64;96861.09;4889876;28;20209;-78
2023/12/25 00:21:48;;;;;;;4.20;1.67;;;;;;;11.29;70.78;96852.78;4895466;28;20209;-79
2023/12/25 00:24:13;;;;;;;3.38;1.60;;;;;;;11.18;71.56;96846.00;4899858;28;20162;-80
2023/12/25 00:26:40;;;;;;;2.05;1.23;;;;;;;11.15;71.23;96836.06;4897645;28;20293;-82
2023/12/25 00:29:09;;;;;;;3.30;1.83;;;;;;;10.93;72.59;96844.84;4914882;28;20174;-81
2023/12/25 00:31:34;;;;;;;2.70;1.58;;;;;;;11.12;71.75;96841.78;4884942;28;20242;-81
2023/12/25 00:33:59;;;;;;;3.95;1.60;;;;;;;10.87;72.62;96825.03;4875052;28;20243;-81
2023/12/25 00:36:25;;;;;;;4.32;2.13;;;;;;;10.89;71.98;96830.78;4913355;28;20781;-79
2023/12/25 00:38:50;;;;;;;2.47;1.10;;;;;;;10.89;72.60;96835.19;4906476;28;20246;-79
2023/12/25 00:41:16;;;;;;;3.25;1.40;;;;;;;10.61;73.60;96844.97;4875419;28;20282;-80
2023/12/25 00:43:41;;;;;;;2.15;1.95;;;;;;;10.57;73.24;96844.66;4909453;28;20106;-81
2023/12/25 00:46:06;;;;;;;3.40;1.55;;;;;;;10.77;73.09;96832.81;4876972;28;20035;-80
2023/12/25 00:48:32;;;;;;;3.50;1.90;;;;;;;10.66;72.62;96843.16;4894384;28;20166;-79
2023/12/25 00:50:57;;;;;;;3.22;1.27;;;;;;;10.67;73.45;96826.50;4902542;28;20557;-81
2023/12/25 00:53:22;;;;;;;3.33;1.40;;;;;;;10.62;73.68;96836.09;4896019;28;20761;-81
2023/12/25 00:55:49;;;;;;;1.70;1.50;;;;;;;10.47;73.29;96840.19;4892908;28;20762;-81
2023/12/25 00:58:14;;;;;;;2.38;1.70;;;;;;;10.70;72.81;96840.06;4874541;28;20203;-80
2023/12/25 01:00:39;;;;;;;1.67;1.20;;;;;;;10.86;72.70;96833.88;4908281;28;20022;-81
2023/12/25 01:03:05;;;;;;;2.55;1.30;;;;;;;10.79;72.34;96828.91;4894550;28;20403;-80
2023/12/25 01:05:30;;;;;;;1.77;1.30;;;;;;;10.76;72.41;96826.81;4905934;28;20209;-80
2023/12/25 01:07:56;;;;;;;3.33;1.30;;;;;;;10.79;72.36;96833.31;4897180;28;20038;-80
2023/12/25 01:10:21;;;;;;;3.40;1.23;;;;;;;10.68;73.20;96835.09;4883576;28;20209;-80
2023/12/25 01:12:46;;;;;;;2.83;1.25;;;;;;;10.80;72.70;96840.88;4882963;28;20313;-81
2023/12/25 01:15:12;;;;;;;1.50;1.23;;;;;;;10.75;73.11;96835.66;4897884;28;20030;-81
2023/12/25 01:17:38;;;;;;;2.63;1.15;;;;;;;10.59;73.52;96819.19;4894504;28;20204;-79
2023/12/25 01:20:03;;;;;;;2.28;1.20;;;;;;;10.50;73.49;96818.06;4913840;28;20034;-80
2023/12/25 01:22:29;;;;;;;2.30;1.30;;;;;;;10.78;72.72;96826.53;4882321;28;20332;-81
2023/12/25 01:24:54;;;;;;;2.08;1.42;;;;;;;10.84;72.61;96820.31;4896401;28;20256;-81
2023/12/25 01:27:20;;;;;;;2.35;1.10;;;;;;;10.75;72.92;96809.63;4910553;28;20351;-83
2023/12/25 01:29:45;;;;;;;1.30;1.20;;;;;;;10.59;72.55;96816.59;4899105;28;20185;-81
2023/12/25 01:32:11;;;;;;;1.67;1.10;;;;;;;10.45;73.62;96831.06;4883892;28;20627;-81
2023/12/25 01:34:36;;;;;;;1.67;1.30;;;;;;;10.65;73.37;96844.19;4884695;28;20332;-84
2023/12/25 01:37:04;;;;;;;1.90;1.40;;;;;;;10.61;73.14;96850.94;4881474;28;20171;-81
2023/12/25 01:39:29;;;;;;;1.38;1.27;;;;;;;10.63;73.28;96848.09;4868714;28;20281;-82
2023/12/25 01:41:55;;;;;;;3.35;2.22;;;;;;;10.81;72.83;96859.91;4918823;28;20275;-81
2023/12/25 01:44:20;;;;;;;1.95;1.30;;;;;;;10.85;72.14;96858.38;4877889;28;20206;-81
2023/12/25 01:46:46;;;;;;;1.48;1.33;;;;;;;10.79;72.34;96872.38;4887455;28;20237;-81
2023/12/25 01:49:11;;;;;;;1.55;1.42;;;;;;;10.67;72.84;96862.94;4923482;28;20178;-81
2023/12/25 01:51:37;;;;;;;1.27;1.15;;;;;;;10.89;72.39;96874.28;4882787;28;20202;-82
2023/12/25 01:54:04;;;;;;;1.90;1.33;;;;;;;10.85;72.97;96881.81;4897819;28;20236;-82
2023/12/25 01:56:30;;;;;;;1.73;1.35;;;;;;;10.79;73.00;96875.78;4888377;28;20255;-81
2023/12/25 01:58:56;;;;;;;1.75;1.05;;;;;;;10.87;72.18;96858.91;4891884;28;20282;-84
2023/12/25 02:01:21;;;;;;;2.40;1.30;;;;;;;10.98;71.59;96865.69;4897047;28;20249;-82
2023/12/25 02:03:47;;;;;;;2.40;1.25;;;;;;;10.60;73.33;96862.38;4911373;28;20524;-82
2023/12/25 02:06:13;;;;;;;1.05;0.95;;;;;;;10.61;73.58;96871.78;4896684;28;20365;-81
2023/12/25 02:08:38;;;;;;;1.50;1.20;;;;;;;10.76;73.22;96872.88;4915096;28;20441;-83
2023/12/25 02:11:04;;;;;;;1.23;0.90;;;;;;;10.87;72.39;96864.88;4919865;28;20444;-81
2023/12/25 02:13:29;;;;;;;1.70;1.20;;;;;;;10.98;72.28;96870.13;4896665;28;20370;-83
2023/12/25 02:15:55;;;;;;;1.65;1.10;;;;;;;10.80;72.21;96860.94;4914299;28;20292;-82
2023/12/25 02:18:21;;;;;;;1.42;1.00;;;;;;;10.94;72.25;96864.66;4875654;28;20402;-83
2023/12/25 02:20:46;;;;;;;1.63;1.00;;;;;;;10.83;72.75;96861.22;4882278;28;20623;-82
2023/12/25 02:23:15;;;;;;;1.58;1.10;;;;;;;10.78;72.24;96861.19;4897739;28;20582;-81
2023/12/25 02:25:56;;;;;;;0.80;0.80;;;;;;;10.80;73.38;96859.13;4897436;28;20326;-81
2023/12/25 02:28:22;;;;;;;3.08;0.93;;;;;;;10.53;73.17;96838.41;4914833;28;20038;-81
2023/12/25 02:30:48;;;;;;;1.05;0.95;;;;;;;10.89;72.82;96843.78;4880906;28;20230;-81
2023/12/25 02:33:13;;;;;;;1.30;0.95;;;;;;;10.82;72.13;96835.44;4913518;28;20264;-82
2023/12/25 02:35:39;;;;;;;1.88;0.90;;;;;;;10.80;72.01;96837.50;4881930;28;20669;-82
2023/12/25 02:38:04;;;;;;;1.10;0.88;;;;;;;10.80;72.30;96838.28;4895271;28;20713;-83
2023/12/25 02:40:30;;;;;;;1.23;1.02;;;;;;;10.83;72.67;96834.38;4883601;28;20699;-82
2023/12/25 02:42:55;;;;;;;1.08;0.90;;;;;;;10.74;72.70;96843.72;4879443;28;20030;-80
2023/12/25 02:45:20;;;;;;;1.10;1.00;;;;;;;10.49;73.87;96839.94;4877822;28;20292;-81
2023/12/25 02:47:46;;;;;;;2.42;0.90;;;;;;;10.80;72.39;96846.09;4904292;28;20845;-81
2023/12/25 02:50:11;;;;;;;1.90;1.30;;;;;;;10.73;73.18;96848.16;4875317;28;20837;-81
2023/12/25 02:52:36;;;;;;;1.42;1.05;;;;;;;10.77;72.02;96854.41;4898678;28;20241;-81
2023/12/25 02:55:02;;;;;;;1.30;0.90;;;;;;;10.96;71.86;96849.53;4914903;28;20154;-81
2023/12/25 02:57:28;;;;;;;1.42;0.98;;;;;;;10.49;73.47;96845.16;4912111;28;20284;-81
2023/12/25 02:59:53;;;;;;;2.47;1.27;;;;;;;10.57;73.64;96843.88;4883513;28;20204;-81
2023/12/25 03:02:19;;;;;;;2.05;0.80;;;;;;;10.50;73.65;96846.72;4904943;28;20272;-82
2023/12/25 03:04:44;;;;;;;1.13;0.70;;;;;;;10.60;73.40;96844.16;4916227;28;20726;-81
2023/12/25 03:07:10;;;;;;;1.65;0.90;;;;;;;10.61;73.94;96850.94;4911481;28;20204;-80
2023/12/25 03:09:35;;;;;;;1.38;0.82;;;;;;;10.66;73.61;96845.00;4879664;28;20381;-81
2023/12/25 03:12:01;;;;;;;2.90;0.80;;;;;;;10.47;73.54;96821.97;4888835;28;20588;-82
2023/12/25 03:14:26;;;;;;;1.45;1.00;;;;;;;10.51;73.39;96830.06;4883609;28;20606;-80
2023/12/25 03:16:52;;;;;;;2.08;0.90;;;;;;;10.72;72.82;96843.97;4900305;28;20641;-78
2023/12/25 03:19:17;;;;;;;1.02;0.90;;;;;;;10.62;73.38;96842.09;4889281;28;20034;-81
2023/12/25 03:21:42;;;;;;;2.20;0.70;;;;;;;10.94;72.17;96838.59;4896947;28;20028;-80
2023/12/25 03:24:09;;;;;;;2.15;0.88;;;;;;;11.02;72.42;96853.75;4957336;28;20435;-80
2023/12/25 03:26:35;;;;;;;1.10;0.75;;;;;;;10.99;71.69;96848.28;4951642;28;20411;-80
2023/12/25 03:29:01;;;;;;;1.63;0.75;;;;;;;10.92;72.43;96866.72;4958719;28;20030;-80
2023/12/25 03:31:28;;;;;;;0.88;0.63;;;;;;;11.02;71.76;96850.38;4947317;28;20038;-80
2023/12/25 03:33:55;;;;;;;2.03;0.80;;;;;;;10.76;72.41;96850.25;4954096;28;20065;-81
2023/12/25 03:36:21;;;;;;;2.00;0.80;;;;;;;10.55;74.07;96846.75;4895595;28;20593;-82
2023/12/25 03:38:46;;;;;;;1.80;0.57;;;;;;;10.78;72.15;96852.59;4915407;28;20205;-81
2023/12/25 03:41:13;;;;;;;0.80;0.57;;;;;;;10.78;72.71;96849.97;4887141;28;20200;-84
2023/12/25 03:43:40;;;;;;;1.23;0.45;;;;;;;10.84;72.67;96826.31;4903758;28;20266;-83
2023/12/25 03:46:06;;;;;;;1.58;0.40;;;;;;;10.77;72.34;96838.00;4914625;28;20377;-84
2023/12/25 03:48:32;;;;;;;0.40;0.40;;;;;;;10.80;72.41;96840.13;4886455;28;20214;-81
2023/12/25 03:50:57;;;;;;;0.82;0.60;;;;;;;10.71;73.11;96844.22;4903067;28;20263;-82
2023/12/25 03:53:23;;;;;;;0.50;0.38;;;;;;;10.94;71.78;96836.00;4884232;28;20041;-85
2023/12/25 03:55:48;;;;;;;0.60;0.43;;;;;;;10.49;73.55;96829.53;4899425;28;20359;-82
2023/12/25 03:58:14;;;;;;;1.25;0.40;;;;;;;10.69;72.83;96831.44;4899954;28;20642;-83
2023/12/25 04:00:40;;;;;;;0.57;0.40;;;;;;;10.99;71.78;96853.47;4917274;28;20041;-82
2023/12/25 04:03:05;;;;;;;0.70;0.40;;;;;;;10.82;72.11;96843.25;4917043;28;20042;-80
2023/12/25 04:05:33;;;;;;;1.15;0.40;;;;;;;10.75;73.01;96847.91;4979156;28;20042;-81
2023/12/25 04:07:59;;;;;;;0.50;0.30;;;;;;;10.72;72.52;96851.78;4979376;28;20030;-81
2023/12/25 04:10:24;;;;;;;0.88;0.40;;;;;;;10.84;71.82;96843.75;4961932;28;20045;-81
2023/12/25 04:12:50;;;;;;;0.65;0.50;;;;;;;10.90;71.88;96834.16;4962146;28;20045;-80
2023/12/25 04:15:15;;;;;;;0.95;0.80;;;;;;;10.96;71.89;96846.16;4922390;28;20190;-81
2023/12/25 04:17:41;;;;;;;1.00;0.38;;;;;;;11.06;72.20;96865.22;4917786;28;20760;-82
2023/12/25 04:20:07;;;;;;;0.45;0.38;;;;;;;10.93;71.84;96844.84;4901988;28;20038;-82
2023/12/25 04:22:33;;;;;;;0.32;0.30;;;;;;;11.00;72.19;96848.00;4918662;28;20039;-82
2023/12/25 04:24:59;;;;;;;0.85;0.30;;;;;;;10.96;71.87;96849.53;4980848;28;20037;-79
2023/12/25 04:27:25;;;;;;;0.47;0.40;;;;;;;10.86;72.04;96844.28;4952434;28;20031;-81
2023/12/25 04:29:53;;;;;;;1.35;0.55;;;;;;;11.06;71.22;96846.22;4965994;28;20030;-81
2023/12/25 04:32:19;;;;;;;0.40;0.40;;;;;;;10.82;72.36;96848.44;4955321;28;20180;-81
2023/12/25 04:34:45;;;;;;;0.40;0.30;;;;;;;10.79;72.00;96835.94;4964724;28;20281;-81
2023/12/25 04:37:10;;;;;;;0.30;0.30;;;;;;;10.86;72.05;96845.09;4929510;28;20037;-83
2023/12/25 04:39:36;;;;;;;0.98;0.30;;;;;;;10.84;71.69;96841.16;4909021;28;20754;-83
2023/12/25 04:42:02;;;;;;;0.40;0.40;;;;;;;10.64;72.83;96821.81;4938154;28;20037;-81
2023/12/25 04:44:28;;;;;;;0.30;0.30;;;;;;;10.78;72.76;96837.75;4970001;28;20030;-81
2023/12/25 04:46:53;;;;;;;0.30;0.30;;;;;;;10.85;71.85;96814.88;4958381;28;20413;-84
2023/12/25 04:49:19;;;;;;;0.57;0.28;;;;;;;10.94;71.34;96822.19;4969140;28;20182;-82
2023/12/25 04:51:45;;;;;;;0.30;0.28;;;;;;;10.52;73.26;96826.44;4991027;28;20197;-81
2023/12/25 04:54:11;;;;;;;0.70;0.20;;;;;;;10.91;72.01;96812.28;4968601;28;20537;-84
2023/12/25 04:56:39;;;;;;;0.90;0.52;;;;;;;10.92;71.70;96824.28;4911022;28;20359;-81
2023/12/25 04:59:04;;;;;;;0.43;0.38;;;;;;;10.52;72.94;96821.25;4922796;28;20038;-83
2023/12/25 05:01:30;;;;;;;0.40;0.30;;;;;;;10.49;73.61;96832.16;4905119;28;20030;-82
2023/12/25 05:03:55;;;;;;;0.47;0.30;;;;;;;10.42;73.52;96826.38;4961202;28;20057;-85
2023/12/25 05:06:21;;;;;;;0.90;0.20;;;;;;;10.55;73.07;96835.56;4953409;28;20042;-79
2023/12/25 05:08:47;;;;;;;0.80;0.30;;;;;;;10.61;73.22;96832.72;4974618;28;20129;-83
2023/12/25 05:11:14;;;;;;;0.30;0.30;;;;;;;10.48;73.66;96815.72;4970207;28;20034;-82
2023/12/25 05:13:41;;;;;;;0.50;0.30;;;;;;;10.81;72.34;96832.06;4965708;28;20606;-79
2023/12/25 05:16:07;;;;;;;0.68;0.30;;;;;;;10.87;71.73;96825.03;4906298;28;20031;-81
2023/12/25 05:18:32;;;;;;;0.40;0.40;;;;;;;10.76;72.85;96826.00;4895914;28;20526;-80
2023/12/25 05:20:59;;;;;;;1.17;0.30;;;;;;;10.63;72.86;96822.84;4928866;28;20420;-82
2023/12/25 05:23:24;;;;;;;0.63;0.30;;;;;;;10.68;72.54;96830.69;4925005;28;20288;-82
2023/12/25 05:25:50;;;;;;;2.50;0.65;;;;;;;10.38;74.00;96828.69;4879864;28;20611;-83
2023/12/25 05:28:17;;;;;;;0.82;0.40;;;;;;;10.72;72.50;96827.56;4901208;28;20136;-82
2023/12/25 05:30:43;;;;;;;0.70;0.40;;;;;;;10.86;72.01;96831.28;4904846;28;20100;-83
2023/12/25 05:33:08;;;;;;;1.13;0.40;;;;;;;10.78;72.01;96837.75;4924962;28;20291;-83
2023/12/25 05:35:34;;;;;;;0.60;0.50;;;;;;;10.70;72.69;96821.84;4919419;28;20034;-84
2023/12/25 05:38:00;;;;;;;1.33;0.50;;;;;;;10.48;73.58;96810.50;4931132;28;20316;-82
2023/12/25 05:40:25;;;;;;;1.42;0.63;;;;;;;10.66;73.11;96817.13;4895531;28;20030;-82
2023/12/25 05:42:51;;;;;;;0.60;0.40;;;;;;;10.30;73.77;96824.72;4918674;28;20706;-82
2023/12/25 05:45:17;;;;;;;0.70;0.40;;;;;;;10.80;72.39;96817.44;4898552;28;20026;-82
2023/12/25 05:47:42;;;;;;;0.50;0.40;;;;;;;10.57;73.78;96838.69;4931422;28;20201;-82
2023/12/25 05:50:08;;;;;;;0.73;0.40;;;;;;;10.47;73.58;96834.22;4915138;28;20209;-85
2023/12/25 05:52:34;;;;;;;0.90;0.50;;;;;;;10.67;71.73;96821.28;4903310;28;20311;-83
2023/12/25 05:55:00;;;;;;;0.60;0.40;;;;;;;10.87;72.30;96831.03;4882006;28;20198;-85
2023/12/25 05:57:27;;;;;;;0.50;0.50;;;;;;;10.82;71.98;96825.78;4903073;28;20702;-83
2023/12/25 05:59:52;;;;;;;1.20;0.68;;;;;;;10.79;72.43;96839.31;4902012;28;20621;-82
2023/12/25 06:02:18;;;;;;;1.00;0.60;;;;;;;10.89;71.45;96846.41;4891219;28;20365;-82
2023/12/25 06:04:44;;;;;;;2.72;0.70;;;;;;;10.97;71.72;96858.94;4894647;28;20270;-82
2023/12/25 06:07:11;;;;;;;0.90;0.60;;;;;;;10.80;71.64;96847.94;4915815;28;20253;-84
2023/12/25 06:09:37;;;;;;;0.95;0.50;;;;;;;10.60;73.02;96859.78;4899411;28;20030;-82
2023/12/25 06:12:03;;;;;;;0.90;0.60;;;;;;;10.53;72.45;96851.41;4894651;28;20200;-82
2023/12/25 06:14:28;;;;;;;1.08;0.60;;;;;;;10.58;72.97;96855.88;4907594;28;20171;-86
2023/12/25 06:16:53;;;;;;;2.33;0.73;;;;;;;10.74;72.12;96854.13;4895395;28;20108;-83
2023/12/25 06:19:19;;;;;;;1.15;0.45;;;;;;;10.92;72.36;96874.53;4903183;28;20204;-82
2023/12/25 06:21:44;;;;;;;1.05;0.50;;;;;;;10.95;72.12;96874.03;4903952;28;20396;-83
2023/12/25 06:24:10;;;;;;;1.05;0.60;;;;;;;11.01;71.17;96870.41;4897119;28;20210;-83
2023/12/25 06:26:35;;;;;;;1.95;0.43;;;;;;;10.82;72.32;96866.69;4886506;28;20298;-86
2023/12/25 06:29:00;;;;;;;1.08;0.68;;;;;;;10.68;72.37;96851.50;4885799;28;20064;-83
2023/12/25 06:31:26;;;;;;;1.50;0.60;;;;;;;10.65;72.94;96859.81;4903933;28;20190;-86
2023/12/25 06:33:51;;;;;;;0.75;0.50;;;;;;;10.87;72.06;96858.91;4915458;28;20529;-83
2023/12/25 06:36:17;;;;;;;1.15;0.60;;;;;;;10.68;72.68;96855.94;4893102;28;20282;-84
2023/12/25 06:38:42;;;;;;;0.63;0.50;;;;;;;10.65;72.37;96846.78;4903239;28;20165;-84
2023/12/25 06:41:10;;;;;;;2.80;0.50;;;;;;;10.53;73.37;96859.22;4905078;28;20201;-82
2023/12/25 06:43:35;;;;;;;1.85;0.60;;;;;;;10.78;71.57;96852.59;4889337;28;20215;-85
2023/12/25 06:46:00;;;;;;;0.85;0.50;;;;;;;10.59;73.02;96841.81;4905894;28;20589;-83
2023/12/25 06:48:26;;;;;;;1.60;0.60;;;;;;;10.65;72.35;96843.41;4887385;28;20210;-85
2023/12/25 06:50:51;;;;;;;2.13;0.88;;;;;;;10.62;72.78;96862.91;4893773;28;20030;-85
2023/12/25 06:53:16;;;;;;;1.63;0.73;;;;;;;10.68;72.18;96840.31;4904623;28;20611;-84
2023/12/25 06:55:42;;;;;;;1.05;0.75;;;;;;;10.37;73.25;96871.38;4913559;28;20038;-86
2023/12/25 06:58:08;;;;;;;0.95;0.50;;;;;;;10.63;72.87;96864.50;4910075;28;20209;-87
2023/12/25 07:00:34;;;;;;;1.70;0.70;;;;;;;10.52;72.90;96862.09;4890054;28;20501;-84
2023/12/25 07:02:59;;;;;;;1.45;0.60;;;;;;;10.38;72.95;96841.69;4894111;28;20279;-83
2023/12/25 07:05:24;;;;;;;0.60;0.60;;;;;;;10.58;73.12;96881.91;4905375;28;20030;-81
2023/12/25 07:07:50;;;;;;;1.25;0.50;;;;;;;10.29;73.25;96885.59;4885882;28;20238;-84
2023/12/25 07:10:16;;;;;;;0.75;0.57;;;;;;;10.50;72.50;96890.97;4884230;28;20221;-84
2023/12/25 07:12:41;;;;;;;0.60;0.52;;;;;;;10.68;72.50;96876.78;4891567;28;20198;-88
2023/12/25 07:15:07;;;;;;;1.25;0.70;;;;;;;10.93;71.51;96890.94;4909913;28;20266;-84
2023/12/25 07:17:32;;;;;;;0.80;0.80;;;;;;;11.00;71.60;96905.31;4899305;28;20267;-82
2023/12/25 07:19:58;;;;;;;0.90;0.70;;;;;;;11.01;70.80;96901.66;4892643;28;20205;-84
2023/12/25 07:22:24;;;;;;;0.70;0.57;;;;;;;10.76;71.95;96894.53;4889674;28;20620;-83
2023/12/25 07:24:50;;;;;;;0.73;0.50;;;;;;;10.60;72.49;96896.22;4894618;28;20205;-84
2023/12/25 07:27:15;;;;;;;1.48;0.50;;;;;;;10.75;71.47;96871.34;4919871;28;20165;-84
2023/12/25 07:29:41;;;;;;;0.57;0.40;;;;;;;10.75;72.08;96892.16;4888032;28;20622;-87
2023/12/25 07:32:07;;;;;;;0.43;0.40;;;;;;;10.95;70.66;96910.50;4878773;28;20347;-83
2023/12/25 07:34:32;;;;;;;1.95;0.50;;;;;;;10.49;73.32;96905.81;4894345;28;20184;-87
2023/12/25 07:36:58;;;;;;;0.88;0.50;;;;;;;10.40;73.58;96907.31;4892879;28;20214;-85
2023/12/25 07:39:23;;;;;;;1.05;0.40;;;;;;;10.46;73.41;96908.13;4905074;28;20219;-84
2023/12/25 07:41:48;;;;;;;1.42;0.57;;;;;;;10.62;72.41;96894.16;4886622;28;20185;-86
2023/12/25 07:44:17;;;;;;;1.30;0.40;;;;;;;11.03;71.03;96927.47;4926076;28;20188;-84
2023/12/25 07:46:45;;;;;;;2.83;0.52;;;;;;;10.75;71.98;96905.19;4917565;28;20277;-85
2023/12/25 07:49:11;;;;;;;1.90;0.80;;;;;;;10.66;71.83;96903.06;4907853;28;20194;-86
2023/12/25 07:51:36;;;;;;;0.70;0.40;;;;;;;10.60;72.82;96914.47;4923699;28;20107;-84
2023/12/25 07:54:02;;;;;;;0.43;0.30;;;;;;;10.58;72.49;96897.53;4923432;28;20591;-84
2023/12/25 07:56:27;;;;;;;0.88;0.40;;;;;;;10.82;71.42;96913.56;4911205;28;20664;-87
2023/12/25 07:58:52;;;;;;;1.10;0.50;;;;;;;11.00;71.29;96925.38;4898759;28;20730;-85
2023/12/25 08:01:19;;;;;;;0.50;0.40;;;;;;;10.60;72.99;96922.25;4893990;28;20219;-86
2023/12/25 08:03:45;;;;;;;0.60;0.50;;;;;;;10.80;72.03;96936.47;4904660;28;20257;-85
2023/12/25 08:06:11;;;;;;;0.73;0.40;;;;;;;10.91;71.74;96913.88;4921428;28;20167;-84
2023/12/25 08:08:37;;;;;;;1.23;0.30;;;;;;;10.91;72.07;96919.06;4921669;28;20213;-86
2023/12/25 08:11:03;;;;;;;1.02;0.40;;;;;;;10.33;74.21;96921.56;4891668;28;20099;-89
2023/12/25 08:13:28;;;;;;;0.50;0.40;;;;;;;10.53;73.33;96890.47;4928254;28;20260;-83
2023/12/25 08:15:56;;;;;;;0.85;0.30;;;;;;;10.61;73.72;96913.44;4910097;28;20547;-86
2023/12/25 08:18:22;;;;;;;0.65;0.30;;;;;;;10.64;73.09;96897.31;4877364;28;20590;-88
2023/12/25 08:20:47;;;;;;;0.50;0.30;;;;;;;10.52;72.26;96888.09;4894776;28;20093;-88
2023/12/25 08:23:13;;;;;;;0.82;0.40;;;;;;;10.72;72.65;96909.06;4894666;28;20194;-87
2023/12/25 08:25:38;;;;;;;0.32;0.20;;;;;;;10.60;72.71;96921.50;4872919;28;20590;-88
2023/12/25 08:28:04;;;;;;;0.80;0.52;;;;;;;10.62;72.61;96904.56;4927107;28;20288;-87
2023/12/25 08:30:29;;;;;;;0.88;0.40;;;;;;;10.75;72.31;96928.63;4885824;28;20274;-84
2023/12/25 08:32:55;;;;;;;0.60;0.40;;;;;;;10.76;72.29;96928.38;4925263;28;20030;-86
2023/12/25 08:35:20;;;;;;;1.42;0.30;;;;;;;10.84;72.19;96940.13;4887166;28;20688;-85
2023/12/25 08:37:45;;;;;;;1.00;0.30;;;;;;;10.61;72.98;96955.09;4908224;28;20197;-88
2023/12/25 08:40:12;;;;;;;0.30;0.28;;;;;;;10.83;72.14;96935.94;4886359;28;20201;-85
2023/12/25 08:42:37;;;;;;;1.17;0.20;;;;;;;11.01;71.86;96951.16;4899540;28;20159;-88
2023/12/25 08:45:06;;;;;;;0.80;0.30;;;;;;;11.03;71.17;96946.47;4898078;28;20714;-85
2023/12/25 08:47:31;;;;;;;0.50;0.30;;;;;;;10.53;73.08;96941.75;4900313;28;20206;-85
2023/12/25 08:49:56;;;;;;;0.25;0.20;;;;;;;10.67;72.99;96954.06;4901150;28;20162;-85
2023/12/25 08:52:22;;;;;;;0.90;0.20;;;;;;;10.60;72.29;96931.91;4906672;28;20232;-87
2023/12/25 08:54:48;;;;;;;0.30;0.30;;;;;;;10.77;72.02;96947.38;4908198;28;20736;-86
2023/12/25 08:57:14;;;;;;;0.35;0.20;;;;;;;10.66;72.75;96941.34;4880324;28;20252;-85
2023/12/25 08:59:39;;;;;;;0.38;0.20;;;;;;;11.02;72.20;96959.78;4900701;28;20174;-86
2023/12/25 09:02:05;;;;;;;1.67;0.20;;;;;;;10.85;72.48;96945.09;4885067;28;20184;-86
2023/12/25 09:04:30;;;;;;;0.30;0.30;;;;;;;10.90;72.49;96967.78;4865241;28;20269;-87
2023/12/25 09:06:56;;;;;;;0.43;0.20;;;;;;;10.78;72.28;96939.31;4914896;28;20368;-86
2023/12/25 09:09:22;;;;;;;0.52;0.30;;;;;;;10.95;71.98;96946.19;4906898;28;20474;-87
2023/12/25 09:11:47;;;;;;;0.35;0.22;;;;;;;10.90;71.93;96961.78;4919624;28;20038;-87
2023/12/25 09:14:13;;;;;;;0.35;0.30;;;;;;;10.66;73.31;96972.56;4908254;28;20116;-87
2023/12/25 09:16:38;;;;;;;0.73;0.30;;;;;;;10.27;74.00;96928.50;4919141;28;20062;-92
2023/12/25 09:19:04;;;;;;;0.20;0.20;;;;;;;10.73;72.92;96964.53;4922005;28;20042;-86
2023/12/25 09:21:30;;;;;;;0.20;0.20;;;;;;;10.82;71.46;96947.41;4902457;28;20030;-84
2023/12/25 09:23:55;;;;;;;0.98;0.50;;;;;;;10.92;72.16;96975.34;4895728;28;20029;-88
2023/12/25 09:26:21;;;;;;;1.85;0.38;;;;;;;10.67;72.88;96964.50;4908174;28;20061;-86
2023/12/25 09:28:47;;;;;;;1.90;0.30;;;;;;;10.87;73.18;96974.28;4909083;28;20053;-86
2023/12/25 09:31:13;;;;;;;0.20;0.20;;;;;;;11.03;71.76;96975.13;4918072;28;20068;-84
2023/12/25 09:33:39;;;;;;;0.45;0.30;;;;;;;10.78;72.44;96993.22;4925846;28;20092;-85
2023/12/25 09:36:06;;;;;;;0.73;0.70;;;;;;;10.96;72.25;96998.03;4920051;28;20029;-84
2023/12/25 09:38:31;;;;;;;0.60;0.40;;;;;;;10.95;72.40;96993.06;4920978;28;20031;-84
2023/12/25 09:40:57;;;;;;;1.10;0.30;;;;;;;10.91;72.15;97002.44;4888851;28;20035;-88
2023/12/25 09:43:23;;;;;;;1.00;0.30;;;;;;;10.90;72.32;96999.03;4894609;28;20026;-85
2023/12/25 09:45:48;;;;;;;0.82;0.30;;;;;;;10.78;72.20;96982.78;4921187;28;20133;-86
2023/12/25 09:48:14;;;;;;;0.50;0.22;;;;;;;10.95;72.03;96986.06;4901424;28;20073;-84
2023/12/25 09:50:40;;;;;;;0.40;0.30;;;;;;;10.95;72.00;96993.88;4921383;28;20026;-86
2023/12/25 09:53:05;;;;;;;0.40;0.40;;;;;;;10.84;72.60;97010.44;4920761;28;20050;-87
2023/12/25 09:55:30;;;;;;;0.57;0.30;;;;;;;10.98;71.62;96990.75;4916833;28;20440;-85
2023/12/25 09:57:58;;;;;;;0.30;0.30;;;;;;;11.18;71.85;97012.75;4928186;28;20026;-85
2023/12/25 10:00:23;;;;;;;0.50;0.35;;;;;;;11.08;71.38;97005.66;4899743;28;20202;-84
2023/12/25 10:02:50;;;;;;;0.47;0.45;;;;;;;11.04;71.90;97020.25;4924020;28;20214;-85
2023/12/25 10:05:18;;;;;;;0.60;0.30;;;;;;;10.86;72.90;97021.41;4910496;28;20646;-84
2023/12/25 10:07:44;;;;;;;0.73;0.30;;;;;;;11.00;71.86;96993.91;4901901;28;20204;-86
2023/12/25 10:10:09;;;;;;;0.40;0.40;;;;;;;11.13;71.42;97023.16;4879816;28;20080;-88
2023/12/25 10:12:35;;;;;;;0.82;0.50;;;;;;;11.06;71.78;97013.72;4910813;28;20188;-86
2023/12/25 10:15:00;;;;;;;0.70;0.65;;;;;;;11.16;71.64;97007.03;4902514;28;20210;-85
2023/12/25 10:17:26;;;;;;;0.63;0.50;;;;;;;10.83;72.37;96977.63;4906289;28;20283;-85
2023/12/25 10:19:54;;;;;;;0.80;0.80;;;;;;;11.27;71.81;97006.03;4891051;28;20524;-85
2023/12/25 10:22:34;;;;;;;0.32;0.30;;;;;;;11.38;71.03;96997.22;4898276;28;20372;-84
2023/12/25 10:25:10;;;;;;;0.63;0.30;;;;;;;11.11;71.97;97010.38;4908498;28;20275;-86
2023/12/25 10:27:43;;;;;;;0.60;0.40;;;;;;;11.13;71.81;96981.47;4921649;28;20201;-85
2023/12/25 10:30:21;;;;;;;0.30;0.30;;;;;;;10.78;73.03;97008.84;4903410;28;20014;-86
2023/12/25 10:32:47;;;;;;;1.75;0.32;;;;;;;11.05;71.94;97001.75;4926915;28;20065;-87
2023/12/25 10:35:14;;;;;;;0.50;0.30;;;;;;;11.15;71.97;97002.84;4908705;28;20112;-86
2023/12/25 10:37:42;;;;;;;0.38;0.30;;;;;;;11.06;71.70;97003.31;4940529;28;20712;-83
2023/12/25 10:40:18;;;;;;;0.70;0.30;;;;;;;10.99;72.32;96994.94;4919678;28;20023;-88
2023/12/25 10:42:48;;;;;;;0.77;0.30;;;;;;;11.03;72.74;96998.59;4916023;28;20120;-86
2023/12/25 10:45:22;;;;;;;0.32;0.32;;;;;;;11.15;71.63;96990.59;4919451;28;20044;-88
2023/12/25 10:48:13;;;;;;;0.57;0.40;;;;;;;11.26;71.21;96996.66;4895480;28;20069;-84
2023/12/25 10:50:40;;;;;;;0.55;0.40;;;;;;;11.09;71.78;96996.00;4890460;28;20082;-84
2023/12/25 10:53:08;;;;;;;0.60;0.50;;;;;;;10.76;73.41;96992.69;4917743;28;20027;-87
2023/12/25 10:55:38;;;;;;;1.27;0.47;;;;;;;10.95;71.92;96980.03;4919302;28;20030;-85
2023/12/25 10:58:12;;;;;;;1.27;0.80;;;;;;;10.80;73.09;96991.16;4925905;28;20030;-88
2023/12/25 11:00:41;;;;;;;1.67;1.13;;;;;;;11.20;71.59;96992.44;4920631;28;20642;-84
2023/12/25 11:03:06;;;;;;;1.15;0.98;;;;;;;11.24;71.10;96989.09;4883131;28;20188;-86
2023/12/25 11:05:32;;;;;;;0.85;0.75;;;;;;;11.09;72.11;96969.97;4896227;28;20208;-86
2023/12/25 11:07:58;;;;;;;0.70;0.70;;;;;;;11.26;71.37;96975.81;4885943;28;20292;-86
2023/12/25 11:10:27;;;;;;;0.63;0.63;;;;;;;10.95;71.79;96965.22;4887359;28;20186;-84
2023/12/25 11:12:53;;;;;;;0.60;0.40;;;;;;;11.01;72.26;96966.03;4907358;28;20329;-85
2023/12/25 11:15:18;;;;;;;0.80;0.73;;;;;;;11.14;71.51;96959.56;4901932;28;20639;-84
2023/12/25 11:17:44;;;;;;;1.52;0.50;;;;;;;10.93;72.30;96969.88;4903003;28;20189;-85
2023/12/25 11:20:11;;;;;;;0.85;0.63;;;;;;;11.01;72.25;96960.81;4903225;28;20267;-86
2023/12/25 11:22:37;;;;;;;0.68;0.57;;;;;;;11.04;72.93;96981.16;4905231;28;20171;-85
2023/12/25 11:25:03;;;;;;;0.45;0.45;;;;;;;11.33;71.55;96976.34;4888671;28;20550;-84
2023/12/25 11:27:32;;;;;;;0.63;0.50;;;;;;;11.03;71.70;96962.13;4895381;28;20193;-85
2023/12/25 11:30:07;;;;;;;2.10;1.23;;;;;;;11.35;71.61;96989.91;4902654;28;20174;-84